Buoy 56916

sailwx.info

Track history (hours):
 
Tides and Currents Weather Stations Pressure Air Temp Water Temp Dewpoint Dewpoint Depression Visibility Wind Speed Wind Dir Waves Ship Positions

Drifting buoy 56916

Last reported at 2016-Jun-28 17:00 UTC. Time now 2016-Jun-28 20:44 UTC.
Position S 51°43' E 107°23'.

Barometer 977.0 mb
Water temperature 2.0 ° C

Date/timePositionNaut miles runAvg speedWind from/ knotsBaromVisibWave heightAir tempDewpointWater temp
2016-Jun-28 17:00S 51°43' E 107°23'2 0.6 977.0 2.0
2016-Jun-28 14:00S 51°41' E 107°23'8 0.9 975.6 2.0
2016-Jun-28 06:00S 51°36' E 107°14'0 0.1 972.9 1.9
2016-Jun-28 02:00S 51°36' E 107°14'1 0.7 975.3 1.8
2016-Jun-28 01:00S 51°36' E 107°13'0 0.5 975.5 1.8
2016-Jun-28 00:00S 51°36' E 107°13'1 0.9 975.9 1.8
2016-Jun-27 23:00S 51°36' E 107°12'1 0.6 976.0 1.8
2016-Jun-27 21:00S 51°36' E 107°10'1 1.3 975.8 1.8
2016-Jun-27 20:00S 51°36' E 107°08'2 0.9 976.2 1.8
2016-Jun-27 18:00S 51°35' E 107°05'1 0.4 977.2 1.8
2016-Jun-27 16:00S 51°35' E 107°04'1 0.5 980.3 1.8
2016-Jun-27 15:00S 51°35' E 107°03'1 0.7 981.5 1.9
2016-Jun-27 14:00S 51°36' E 107°02'3 2.8 982.9 1.8
2016-Jun-27 13:00S 51°36' E 106°58'0 0.1 983.8 1.8
2016-Jun-27 11:00S 51°37' E 106°58'1 0.6 984.3 1.9
2016-Jun-27 10:00S 51°37' E 106°57'1 1.1 984.0 1.8
2016-Jun-27 09:00S 51°38' E 106°56'1 1.2 983.1 1.8
2016-Jun-27 08:00S 51°38' E 106°54'0 0.0 982.5 1.8
2016-Jun-27 06:00S 51°38' E 106°54'5 1.2 981.8 1.8
2016-Jun-27 02:00S 51°42' E 106°49'0 0.1 981.8 1.8
2016-Jun-27 01:00S 51°42' E 106°49'1 0.9 981.3 1.8
2016-Jun-27 00:00S 51°42' E 106°48'2 0.8 981.2 1.8
2016-Jun-26 22:00S 51°43' E 106°45'1 1.0 981.6 1.8
2016-Jun-26 21:00S 51°44' E 106°44'1 0.8 981.6 1.8
2016-Jun-26 20:00S 51°44' E 106°43'1 0.7 981.5 1.8
2016-Jun-26 18:00S 51°45' E 106°42'1 1.1 982.5 1.8
2016-Jun-26 17:00S 51°46' E 106°40'1 0.9 983.0 1.8
2016-Jun-26 16:00S 51°47' E 106°39'1 1.0 983.7 1.9
2016-Jun-26 15:00S 51°48' E 106°39'0 0.0 984.6 1.8
2016-Jun-26 14:00S 51°48' E 106°39'1 1.0 985.1 1.8
2016-Jun-26 13:00S 51°48' E 106°37'2 0.9 986.0 1.8
2016-Jun-26 11:00S 51°49' E 106°35'1 1.3 986.5 1.8
2016-Jun-26 10:00S 51°50' E 106°34'1 0.9 986.5 1.8
2016-Jun-26 09:00S 51°51' E 106°33'0 0.0 986.2 1.8
2016-Jun-26 08:00S 51°51' E 106°33'1 1.4 985.6 1.8
2016-Jun-26 07:00S 51°52' E 106°31'0 0.0 985.1 1.8
2016-Jun-26 06:00S 51°52' E 106°31'4 1.4 984.5 1.8
2016-Jun-26 03:00S 51°55' E 106°28'0 0.0 982.4 1.8
2016-Jun-26 02:00S 51°55' E 106°28'0 0.0 981.6 1.8
2016-Jun-26 01:00S 51°55' E 106°28'1 1.2 980.6 1.9
2016-Jun-26 00:00S 51°56' E 106°26'4 1.2 980.2 1.8
2016-Jun-25 21:00S 51°59' E 106°22'1 0.9 979.8 1.8
2016-Jun-25 20:00S 51°59' E 106°23'2 0.5 979.8 1.8
2016-Jun-25 17:00S 51°60' E 106°21'1 0.9 980.4 1.8
2016-Jun-25 16:00S 52°00' E 106°20'1 0.5 980.6 1.9
2016-Jun-25 15:00S 52°01' E 106°20'1 0.5 980.7 1.9
2016-Jun-25 14:00S 52°01' E 106°19'1 0.4 981.3 1.9
2016-Jun-25 11:00S 52°02' E 106°18'1 0.9 982.2 2.0
2016-Jun-25 10:00S 52°03' E 106°18'0 0.1 983.1 2.0
2016-Jun-25 09:00S 52°03' E 106°18'1 0.6 984.4 2.0
2016-Jun-25 07:00S 52°03' E 106°17'0 0.0 986.7 2.0
2016-Jun-25 06:00S 52°03' E 106°17'3 1.0 987.6 2.0
2016-Jun-25 03:00S 52°05' E 106°13'0 0.2 988.9 2.0
2016-Jun-25 01:00S 52°06' E 106°14'1 0.3 988.0 2.0
2016-Jun-24 23:00S 52°06' E 106°14'1 0.4 986.2 2.0
2016-Jun-24 21:00S 52°07' E 106°14'0 0.0 984.1 2.0
2016-Jun-24 20:00S 52°07' E 106°14'2 2.2 982.6 2.0
2016-Jun-24 19:00S 52°09' E 106°15'1 0.4 981.0 2.0
2016-Jun-24 17:00S 52°10' E 106°16'1 0.4 977.4 2.0
2016-Jun-24 15:00S 52°11' E 106°16'2 1.7 973.5 2.1
2016-Jun-24 14:00S 52°12' E 106°18'0 0.0 971.0 2.1
2016-Jun-24 13:00S 52°12' E 106°18'1 0.6 967.8 2.1
2016-Jun-24 11:00S 52°12' E 106°16'1 0.5 965.4 2.1
2016-Jun-24 09:00S 52°11' E 106°18'1 0.3 964.6 2.1
2016-Jun-24 07:00S 52°12' E 106°18'0 0.0 963.3 2.0
2016-Jun-24 06:00S 52°12' E 106°18'2 0.3 963.5 2.0
2016-Jun-24 00:00S 52°12' E 106°21'0 0.2 968.6 2.0
2016-Jun-23 22:00S 52°12' E 106°22'1 0.7 970.2 2.1
2016-Jun-23 21:00S 52°12' E 106°22'1 0.7 970.8 2.0
2016-Jun-23 20:00S 52°11' E 106°23'0 0.0 971.6 2.0
2016-Jun-23 19:00S 52°11' E 106°23'1 0.4 972.6 2.0
2016-Jun-23 17:00S 52°11' E 106°24'1 1.1 973.9 2.0
2016-Jun-23 16:00S 52°10' E 106°25'1 0.7 974.5 2.0
2016-Jun-23 14:00S 52°09' E 106°27'1 0.8 975.7 2.0
2016-Jun-23 13:00S 52°10' E 106°27'1 0.3 975.8 2.0
2016-Jun-23 11:00S 52°10' E 106°28'1 0.7 976.2 2.0
2016-Jun-23 10:00S 52°10' E 106°29'0 0.0 976.4 2.0
2016-Jun-23 09:00S 52°10' E 106°29'1 0.7 976.2 2.0
2016-Jun-23 08:00S 52°09' E 106°30'0 0.2 976.2 2.0
2016-Jun-23 07:00S 52°09' E 106°30'4 0.9 976.7 1.9
2016-Jun-23 03:00S 52°06' E 106°32'1 1.1 987.2 1.9
2016-Jun-23 02:00S 52°05' E 106°32'0 0.1 990.2 1.8
2016-Jun-23 00:00S 52°05' E 106°32'1 0.7 995.8 1.8
2016-Jun-22 22:00S 52°04' E 106°33'1 1.0 998.9 1.8
2016-Jun-22 21:00S 52°03' E 106°35'0 0.0 1000.4 1.8
2016-Jun-22 20:00S 52°03' E 106°35'1 0.7 1002.0 1.8
2016-Jun-22 19:00S 52°03' E 106°35'1 0.3 1003.2 1.8
2016-Jun-22 17:00S 52°02' E 106°36'1 0.3 1004.6 1.9
2016-Jun-22 15:00S 52°02' E 106°36'1 0.7 1005.4 1.8
2016-Jun-22 14:00S 52°02' E 106°37'1 0.8 1005.2 1.8
2016-Jun-22 13:00S 52°01' E 106°36'0 0.0 1005.3 1.9
2016-Jun-22 12:00S 52°01' E 106°36'1 0.4 1005.1 1.8
2016-Jun-22 10:00S 52°00' E 106°36'1 0.9 1004.4 1.8
2016-Jun-22 09:00S 51°60' E 106°38'1 0.2 1003.9 1.8
2016-Jun-22 02:00S 51°59' E 106°37'1 0.7 999.6 1.8
2016-Jun-22 01:00S 51°59' E 106°36'1 0.8 999.2 1.8
2016-Jun-22 00:00S 51°58' E 106°37'0 0.0 999.7 1.8
2016-Jun-21 23:00S 51°58' E 106°37'2 0.8 999.9 1.8
2016-Jun-21 21:00S 51°57' E 106°35'1 0.6 998.6 1.9
2016-Jun-21 20:00S 51°57' E 106°35'0 0.0 998.0 1.9
2016-Jun-21 19:00S 51°57' E 106°35'1 0.5 997.6 1.9
2016-Jun-21 17:00S 51°56' E 106°35'0 0.4 997.0 1.9
2016-Jun-21 16:00S 51°55' E 106°35'0 0.0 996.8 1.9
2016-Jun-21 15:00S 51°55' E 106°35'1 0.6 996.3 1.9
2016-Jun-21 14:00S 51°55' E 106°34'1 0.2 996.0 1.9
2016-Jun-21 11:00S 51°55' E 106°33'0 0.2 993.1 1.9
2016-Jun-21 10:00S 51°55' E 106°33'0 0.3 991.2 1.9
2016-Jun-21 09:00S 51°55' E 106°33'2 1.2 990.5 1.9
2016-Jun-21 07:00S 51°53' E 106°30'1 0.4 991.3 1.9
2016-Jun-21 03:00S 51°53' E 106°28'0 0.0 991.7 1.9
2016-Jun-21 01:00S 51°53' E 106°28'1 0.4 990.4 1.9
2016-Jun-20 22:00S 51°53' E 106°26'2 1.1 988.7 1.9
2016-Jun-20 20:00S 51°54' E 106°23'0 0.0 988.6 1.9
2016-Jun-20 18:00S 51°54' E 106°23'1 0.9 988.1 1.9
2016-Jun-20 17:00S 51°54' E 106°22'1 0.4 988.0 1.9
2016-Jun-20 15:00S 51°54' E 106°21'0 0.2 987.5 1.9
2016-Jun-20 14:00S 51°54' E 106°20'2 1.6 987.5 1.9
2016-Jun-20 13:00S 51°54' E 106°18'1 0.5 987.1 1.9
2016-Jun-20 11:00S 51°55' E 106°19'1 0.6 986.5 1.9
2016-Jun-20 10:00S 51°55' E 106°19'2 0.9 986.0 1.9
2016-Jun-20 08:00S 51°57' E 106°17'2 0.8 983.3 1.9
2016-Jun-20 06:00S 51°58' E 106°15'0 0.0 980.7 2.0
2016-Jun-20 05:00S 51°58' E 106°15'2 0.6 980.2 2.0
2016-Jun-20 01:00S 51°60' E 106°13'2 2.0 982.5 2.0
2016-Jun-20 00:00S 52°01' E 106°10'3 0.5 982.8 2.0
2016-Jun-19 18:00S 52°02' E 106°05'1 1.3 986.2 2.0
2016-Jun-19 17:00S 52°03' E 106°04'0 0.2 988.9 2.0
2016-Jun-19 16:00S 52°03' E 106°04'1 0.9 990.8 2.0
2016-Jun-19 15:00S 52°04' E 106°04'0 0.4 992.8 2.0
2016-Jun-19 14:00S 52°04' E 106°04'2 1.8 994.2 2.0
2016-Jun-19 13:00S 52°05' E 106°01'0 0.0 995.6 2.0
2016-Jun-19 12:00S 52°05' E 106°01'0 0.1 996.5 2.0
2016-Jun-19 11:00S 52°05' E 106°01'1 0.7 996.8 2.0
2016-Jun-19 10:00S 52°06' E 106°00'1 0.6 996.9 2.0
2016-Jun-19 08:00S 52°06' E 105°59'1 0.4 997.0 2.0
2016-Jun-19 06:00S 52°07' E 105°59'1 0.2 997.0 1.9
2016-Jun-19 03:00S 52°08' E 105°58'0 0.5 998.6 1.9
2016-Jun-19 02:00S 52°08' E 105°58'1 0.5 998.6 1.8
2016-Jun-19 00:00S 52°09' E 105°58'0 0.0 998.9 1.8
2016-Jun-18 23:00S 52°09' E 105°58'1 0.3 999.1 1.8
2016-Jun-18 21:00S 52°09' E 105°57'1 0.7 999.7 1.8
2016-Jun-18 20:00S 52°10' E 105°57'1 0.4 1000.0 1.8
2016-Jun-18 18:00S 52°11' E 105°56'1 1.2 1000.2 1.8
2016-Jun-18 17:00S 52°12' E 105°56'   1000.4 1.8
Track history (hours):
 
Tides and Currents Weather Stations Pressure Air Temp Water Temp Dewpoint Dewpoint Depression Visibility Wind Speed Wind Dir Waves Ship Positions

Drifting buoy 56916

Last reported at 2016-Jun-28 17:00 UTC. Time now 2016-Jun-28 20:44 UTC.
Position S 51°43' E 107°23'.

Barometer 977.0 mb
Water temperature 2.0 ° C

Date/timePositionNaut miles runAvg speedWind from/ knotsBaromVisibWave heightAir tempDewpointWater temp
2016-Jun-28 17:00S 51°43' E 107°23'2 0.6 977.0 2.0
2016-Jun-28 14:00S 51°41' E 107°23'8 0.9 975.6 2.0
2016-Jun-28 06:00S 51°36' E 107°14'0 0.1 972.9 1.9
2016-Jun-28 02:00S 51°36' E 107°14'1 0.7 975.3 1.8
2016-Jun-28 01:00S 51°36' E 107°13'0 0.5 975.5 1.8
2016-Jun-28 00:00S 51°36' E 107°13'1 0.9 975.9 1.8
2016-Jun-27 23:00S 51°36' E 107°12'1 0.6 976.0 1.8
2016-Jun-27 21:00S 51°36' E 107°10'1 1.3 975.8 1.8
2016-Jun-27 20:00S 51°36' E 107°08'2 0.9 976.2 1.8
2016-Jun-27 18:00S 51°35' E 107°05'1 0.4 977.2 1.8
2016-Jun-27 16:00S 51°35' E 107°04'1 0.5 980.3 1.8
2016-Jun-27 15:00S 51°35' E 107°03'1 0.7 981.5 1.9
2016-Jun-27 14:00S 51°36' E 107°02'3 2.8 982.9 1.8
2016-Jun-27 13:00S 51°36' E 106°58'0 0.1 983.8 1.8
2016-Jun-27 11:00S 51°37' E 106°58'1 0.6 984.3 1.9
2016-Jun-27 10:00S 51°37' E 106°57'1 1.1 984.0 1.8
2016-Jun-27 09:00S 51°38' E 106°56'1 1.2 983.1 1.8
2016-Jun-27 08:00S 51°38' E 106°54'0 0.0 982.5 1.8
2016-Jun-27 06:00S 51°38' E 106°54'5 1.2 981.8 1.8
2016-Jun-27 02:00S 51°42' E 106°49'0 0.1 981.8 1.8
2016-Jun-27 01:00S 51°42' E 106°49'1 0.9 981.3 1.8
2016-Jun-27 00:00S 51°42' E 106°48'2 0.8 981.2 1.8
2016-Jun-26 22:00S 51°43' E 106°45'1 1.0 981.6 1.8
2016-Jun-26 21:00S 51°44' E 106°44'1 0.8 981.6 1.8
2016-Jun-26 20:00S 51°44' E 106°43'1 0.7 981.5 1.8
2016-Jun-26 18:00S 51°45' E 106°42'1 1.1 982.5 1.8
2016-Jun-26 17:00S 51°46' E 106°40'1 0.9 983.0 1.8
2016-Jun-26 16:00S 51°47' E 106°39'1 1.0 983.7 1.9
2016-Jun-26 15:00S 51°48' E 106°39'0 0.0 984.6 1.8
2016-Jun-26 14:00S 51°48' E 106°39'1 1.0 985.1 1.8
2016-Jun-26 13:00S 51°48' E 106°37'2 0.9 986.0 1.8
2016-Jun-26 11:00S 51°49' E 106°35'1 1.3 986.5 1.8
2016-Jun-26 10:00S 51°50' E 106°34'1 0.9 986.5 1.8
2016-Jun-26 09:00S 51°51' E 106°33'0 0.0 986.2 1.8
2016-Jun-26 08:00S 51°51' E 106°33'1 1.4 985.6 1.8
2016-Jun-26 07:00S 51°52' E 106°31'0 0.0 985.1 1.8
2016-Jun-26 06:00S 51°52' E 106°31'4 1.4 984.5 1.8
2016-Jun-26 03:00S 51°55' E 106°28'0 0.0 982.4 1.8
2016-Jun-26 02:00S 51°55' E 106°28'0 0.0 981.6 1.8
2016-Jun-26 01:00S 51°55' E 106°28'1 1.2 980.6 1.9
2016-Jun-26 00:00S 51°56' E 106°26'4 1.2 980.2 1.8
2016-Jun-25 21:00S 51°59' E 106°22'1 0.9 979.8 1.8
2016-Jun-25 20:00S 51°59' E 106°23'2 0.5 979.8 1.8
2016-Jun-25 17:00S 51°60' E 106°21'1 0.9 980.4 1.8
2016-Jun-25 16:00S 52°00' E 106°20'1 0.5 980.6 1.9
2016-Jun-25 15:00S 52°01' E 106°20'1 0.5 980.7 1.9
2016-Jun-25 14:00S 52°01' E 106°19'1 0.4 981.3 1.9
2016-Jun-25 11:00S 52°02' E 106°18'1 0.9 982.2 2.0
2016-Jun-25 10:00S 52°03' E 106°18'0 0.1 983.1 2.0
2016-Jun-25 09:00S 52°03' E 106°18'1 0.6 984.4 2.0
2016-Jun-25 07:00S 52°03' E 106°17'0 0.0 986.7 2.0
2016-Jun-25 06:00S 52°03' E 106°17'3 1.0 987.6 2.0
2016-Jun-25 03:00S 52°05' E 106°13'0 0.2 988.9 2.0
2016-Jun-25 01:00S 52°06' E 106°14'1 0.3 988.0 2.0
2016-Jun-24 23:00S 52°06' E 106°14'1 0.4 986.2 2.0
2016-Jun-24 21:00S 52°07' E 106°14'0 0.0 984.1 2.0
2016-Jun-24 20:00S 52°07' E 106°14'2 2.2 982.6 2.0
2016-Jun-24 19:00S 52°09' E 106°15'1 0.4 981.0 2.0
2016-Jun-24 17:00S 52°10' E 106°16'1 0.4 977.4 2.0
2016-Jun-24 15:00S 52°11' E 106°16'2 1.7 973.5 2.1
2016-Jun-24 14:00S 52°12' E 106°18'0 0.0 971.0 2.1
2016-Jun-24 13:00S 52°12' E 106°18'1 0.6 967.8 2.1
2016-Jun-24 11:00S 52°12' E 106°16'1 0.5 965.4 2.1
2016-Jun-24 09:00S 52°11' E 106°18'1 0.3 964.6 2.1
2016-Jun-24 07:00S 52°12' E 106°18'0 0.0 963.3 2.0
2016-Jun-24 06:00S 52°12' E 106°18'2 0.3 963.5 2.0
2016-Jun-24 00:00S 52°12' E 106°21'0 0.2 968.6 2.0
2016-Jun-23 22:00S 52°12' E 106°22'1 0.7 970.2 2.1
2016-Jun-23 21:00S 52°12' E 106°22'1 0.7 970.8 2.0
2016-Jun-23 20:00S 52°11' E 106°23'0 0.0 971.6 2.0
2016-Jun-23 19:00S 52°11' E 106°23'1 0.4 972.6 2.0
2016-Jun-23 17:00S 52°11' E 106°24'1 1.1 973.9 2.0
2016-Jun-23 16:00S 52°10' E 106°25'1 0.7 974.5 2.0
2016-Jun-23 14:00S 52°09' E 106°27'1 0.8 975.7 2.0
2016-Jun-23 13:00S 52°10' E 106°27'1 0.3 975.8 2.0
2016-Jun-23 11:00S 52°10' E 106°28'1 0.7 976.2 2.0
2016-Jun-23 10:00S 52°10' E 106°29'0 0.0 976.4 2.0
2016-Jun-23 09:00S 52°10' E 106°29'1 0.7 976.2 2.0
2016-Jun-23 08:00S 52°09' E 106°30'0 0.2 976.2 2.0
2016-Jun-23 07:00S 52°09' E 106°30'4 0.9 976.7 1.9
2016-Jun-23 03:00S 52°06' E 106°32'1 1.1 987.2 1.9
2016-Jun-23 02:00S 52°05' E 106°32'0 0.1 990.2 1.8
2016-Jun-23 00:00S 52°05' E 106°32'1 0.7 995.8 1.8
2016-Jun-22 22:00S 52°04' E 106°33'1 1.0 998.9 1.8
2016-Jun-22 21:00S 52°03' E 106°35'0 0.0 1000.4 1.8
2016-Jun-22 20:00S 52°03' E 106°35'1 0.7 1002.0 1.8
2016-Jun-22 19:00S 52°03' E 106°35'1 0.3 1003.2 1.8
2016-Jun-22 17:00S 52°02' E 106°36'1 0.3 1004.6 1.9
2016-Jun-22 15:00S 52°02' E 106°36'1 0.7 1005.4 1.8
2016-Jun-22 14:00S 52°02' E 106°37'1 0.8 1005.2 1.8
2016-Jun-22 13:00S 52°01' E 106°36'0 0.0 1005.3 1.9
2016-Jun-22 12:00S 52°01' E 106°36'1 0.4 1005.1 1.8
2016-Jun-22 10:00S 52°00' E 106°36'1 0.9 1004.4 1.8
2016-Jun-22 09:00S 51°60' E 106°38'1 0.2 1003.9 1.8
2016-Jun-22 02:00S 51°59' E 106°37'1 0.7 999.6 1.8
2016-Jun-22 01:00S 51°59' E 106°36'1 0.8 999.2 1.8
2016-Jun-22 00:00S 51°58' E 106°37'0 0.0 999.7 1.8
2016-Jun-21 23:00S 51°58' E 106°37'2 0.8 999.9 1.8
2016-Jun-21 21:00S 51°57' E 106°35'1 0.6 998.6 1.9
2016-Jun-21 20:00S 51°57' E 106°35'0 0.0 998.0 1.9
2016-Jun-21 19:00S 51°57' E 106°35'1 0.5 997.6 1.9
2016-Jun-21 17:00S 51°56' E 106°35'0 0.4 997.0 1.9
2016-Jun-21 16:00S 51°55' E 106°35'0 0.0 996.8 1.9
2016-Jun-21 15:00S 51°55' E 106°35'1 0.6 996.3 1.9
2016-Jun-21 14:00S 51°55' E 106°34'1 0.2 996.0 1.9
2016-Jun-21 11:00S 51°55' E 106°33'0 0.2 993.1 1.9
2016-Jun-21 10:00S 51°55' E 106°33'0 0.3 991.2 1.9
2016-Jun-21 09:00S 51°55' E 106°33'2 1.2 990.5 1.9
2016-Jun-21 07:00S 51°53' E 106°30'1 0.4 991.3 1.9
2016-Jun-21 03:00S 51°53' E 106°28'0 0.0 991.7 1.9
2016-Jun-21 01:00S 51°53' E 106°28'1 0.4 990.4 1.9
2016-Jun-20 22:00S 51°53' E 106°26'2 1.1 988.7 1.9
2016-Jun-20 20:00S 51°54' E 106°23'0 0.0 988.6 1.9
2016-Jun-20 18:00S 51°54' E 106°23'1 0.9 988.1 1.9
2016-Jun-20 17:00S 51°54' E 106°22'1 0.4 988.0 1.9
2016-Jun-20 15:00S 51°54' E 106°21'0 0.2 987.5 1.9
2016-Jun-20 14:00S 51°54' E 106°20'2 1.6 987.5 1.9
2016-Jun-20 13:00S 51°54' E 106°18'1 0.5 987.1 1.9
2016-Jun-20 11:00S 51°55' E 106°19'1 0.6 986.5 1.9
2016-Jun-20 10:00S 51°55' E 106°19'2 0.9 986.0 1.9
2016-Jun-20 08:00S 51°57' E 106°17'2 0.8 983.3 1.9
2016-Jun-20 06:00S 51°58' E 106°15'0 0.0 980.7 2.0
2016-Jun-20 05:00S 51°58' E 106°15'2 0.6 980.2 2.0
2016-Jun-20 01:00S 51°60' E 106°13'2 2.0 982.5 2.0
2016-Jun-20 00:00S 52°01' E 106°10'3 0.5 982.8 2.0
2016-Jun-19 18:00S 52°02' E 106°05'1 1.3 986.2 2.0
2016-Jun-19 17:00S 52°03' E 106°04'0 0.2 988.9 2.0
2016-Jun-19 16:00S 52°03' E 106°04'1 0.9 990.8 2.0
2016-Jun-19 15:00S 52°04' E 106°04'0 0.4 992.8 2.0
2016-Jun-19 14:00S 52°04' E 106°04'2 1.8 994.2 2.0
2016-Jun-19 13:00S 52°05' E 106°01'0 0.0 995.6 2.0
2016-Jun-19 12:00S 52°05' E 106°01'0 0.1 996.5 2.0
2016-Jun-19 11:00S 52°05' E 106°01'1 0.7 996.8 2.0
2016-Jun-19 10:00S 52°06' E 106°00'1 0.6 996.9 2.0
2016-Jun-19 08:00S 52°06' E 105°59'1 0.4 997.0 2.0
2016-Jun-19 06:00S 52°07' E 105°59'1 0.2 997.0 1.9
2016-Jun-19 03:00S 52°08' E 105°58'0 0.5 998.6 1.9
2016-Jun-19 02:00S 52°08' E 105°58'1 0.5 998.6 1.8
2016-Jun-19 00:00S 52°09' E 105°58'0 0.0 998.9 1.8
2016-Jun-18 23:00S 52°09' E 105°58'1 0.3 999.1 1.8
2016-Jun-18 21:00S 52°09' E 105°57'1 0.7 999.7 1.8
2016-Jun-18 20:00S 52°10' E 105°57'1 0.4 1000.0 1.8
2016-Jun-18 18:00S 52°11' E 105°56'1 1.2 1000.2 1.8
2016-Jun-18 17:00S 52°12' E 105°56'   1000.4 1.8

Dump ship's entire track history